Tiempo atmosférico en la estación meteorológica de La Rambla, Córdoba (200 m.)



Fecha
DESCASC
Temp. máxima en grados centígrados (hora)
DESCASC
Temp. mínima en grados centígrados (hora)
DESCASC
Temp. media en grados centígrados
DESCASC
Racha de viento máxima en m/sg (hora)
DESCASC
Velocidad máxima media en intervalos de 10 minutos(hora)
DESCASC
Precipitaciones diarias en mm
DESCASC
Precipitaciones de 00:00 a 06:00 en mm
DESCASC
Precipitaciones de 06:00 a 12:00 en mm
DESCASC
Precipitaciones de 12:00 a 18:00 en mm
DESCASC
Precipitaciones de 18:00 a 24:00 en mm
DESCASC
22-04-2019 22.8 (17:20) 6.5 (07:40) 14.6 14.17 (21:30) 8.89 (23:20) 0 0 0 0 0
21-04-2019 17.3 (16:30) 11.5 (08:10) 14.4 9.17 (09:30) 6.39 (17:00) 0 0 0 0 0
20-04-2019 19.7 (16:00) 9.1 (04:00) 14.4 14.17 (18:50) 8.61 (19:40) 0.4 0 0.4 0 0
19-04-2019 19.9 (16:20) 8.3 (00:20) 14.1 8.89 (17:10) 5 (17:10) 2.2 0 0 2.2 0
18-04-2019 17.4 (12:00) 8.6 (00:00) 13 9.72 (02:10) 6.11 (02:20) 4 0 0.4 3 0.6
17-04-2019 24 (12:30) 10.5 (00:00) 17.3 13.33 (15:30) 9.17 (16:10) 0 0 0 0 0
16-04-2019 27.3 (18:20) 7.2 (00:00) 17.2 8.61 (18:20) 5.56 (18:20) 0 0 0 0 0
15-04-2019 26.5 (16:20) 12.6 (00:00) 19.6 13.06 (19:00) 9.17 (19:00) 0 0 0 0 0
14-04-2019 26.3 (16:50) 7.1 (00:00) 16.7 4.72 (18:00) 2.5 (17:50) 0 0 0 0 0
13-04-2019 24.3 (17:50) 4.7 (00:00) 14.5 5.28 (17:40) 3.61 (20:10) 0 0 0 0 0
12-04-2019 22.3 (18:20) 5.3 (00:00) 13.8 5.28 (16:20) 2.78 (16:30) 0 0 0 0 0
11-04-2019 20.7 (17:30) 3.7 (00:00) 12.2 5.56 (23:59) 3.33 (23:59) 0 0 0 0 0
10-04-2019 18.8 (18:30) 3.9 (00:00) 11.3 9.17 (18:50) 5.56 (18:40) 0 0 0 0 0
09-04-2019 17.2 (17:00) 5.5 (00:00) 11.4 11.39 (16:00) 6.94 (16:00) 0.8 0 0 0.8 0
08-04-2019 16.8 (16:20) 12.1 (00:00) 14.4 11.94 (18:10) 7.5 (16:10) 10 1 5 3.8 0.2
07-04-2019 15.5 (15:20) 7.4 (00:00) 11.5 9.17 (15:50) 6.11 (14:30) 11.8 0 0 0.2 11.6
06-04-2019 13.7 (14:30) 3.8 (00:00) 8.7 14.17 (15:20) 8.89 (17:00) 15.4 0 1.2 4.2 10
05-04-2019 15.4 (18:10) 7.3 (00:00) 11.3 13.61 (16:20) 8.89 (20:10) 10.8 0 9.4 0.8 0.6
04-04-2019 19.1 (17:30) 1.3 (00:00) 10.2 10.28 (18:00) 7.22 (20:20) 0 0 0 0 0
03-04-2019 22.6 (17:10) 5.8 (00:00) 14.2 11.11 (17:40) 7.22 (18:10) 0 0 0 0 0
02-04-2019 21.7 (18:20) 7.5 (00:00) 14.6 5.28 (16:30) 3.89 (19:10) 0 0 0 0 0
01-04-2019 18.3 (17:40) 10.1 (00:00) 14.2 8.61 (13:20) 6.39 (13:20) 1.6 0.8 0 0.6 0.2
31-03-2019 20 (17:00) 11.9 (00:00) 15.9 6.39 (22:20) 4.44 (01:20) 4.6 0.6 3.4 0 0.6
30-03-2019 23.1 (15:10) 6.3 (00:00) 14.7 10.28 (19:00) 7.22 (18:40) 0 0 0 0 0
29-03-2019 22.2 (15:10) 2.6 (00:00) 12.4 10 (14:00) 6.11 (16:20) 0 0 0 0 0
28-03-2019 22.4 (16:40) 4.2 (00:00) 13.3 8.61 (18:50) 6.11 (18:50) 0 0 0 0 0
27-03-2019 22.5 (17:00) 5.1 (00:00) 13.8 9.17 (11:20) 5.83 (18:50) 0 0 0 0 0
26-03-2019 25.9 (15:40) 7 (00:00) 16.4 7.78 (17:20) 5.83 (17:20) 0 0 0 0 0
25-03-2019 24.5 (16:50) 6.7 (00:00) 15.6 8.89 (10:40) 6.11 (10:40) 0 0 0 0 0

Gráficas

Temp. máximas Temp. mínimas Temp. medias Precipitaciones Rachas de viento máximas Velocidades máximas media en intervalos de 10 minutos

Datos horarios

Fecha y hora oficial Temperatura (ºC) Velocidad del viento (km/h) Dirección del viento Racha (km/h) Dirección de racha Precipitación (mm) Presión (hPa) Tendencia (hPa) Humedad (%)
2019-04-23 23:00:00 -- -- -- -- -- -- -- -- --
2019-04-23 22:00:00 10.8 16 Sudoeste 28 Sudoeste 0 -- -- 73
2019-04-23 21:00:00 12.3 20 Sudoeste 39 Sudoeste 0 -- -- 68
2019-04-23 20:00:00 14.1 24 Sudoeste 40 Sudoeste 0 -- -- 58
2019-04-23 19:00:00 14.8 20 Oeste 41 Sudoeste 0 -- -- 58
2019-04-23 18:00:00 13.7 20 Sudoeste 36 Sudoeste 0 -- -- 69
2019-04-23 17:00:00 14.6 29 Sudoeste 40 Sudoeste 0 -- -- 65
2019-04-23 16:00:00 14.5 22 Oeste 53 Oeste 0 -- -- 64
2019-04-23 15:00:00 14.1 28 Sudoeste 43 Sudoeste 0.2 -- -- 73
2019-04-23 14:00:00 13.6 13 Oeste 30 Sudoeste 0 -- -- 71
2019-04-23 13:00:00 14.6 25 Sudoeste 37 Sudoeste 0 -- -- 65
2019-04-23 12:00:00 13.1 15 Sudoeste 27 Sudoeste 0 -- -- 81
2019-04-23 11:00:00 11.4 19 Sudoeste 31 Sudoeste 0 -- -- 92
2019-04-23 10:00:00 10.8 15 Sudoeste 37 Sudoeste 0.6 -- -- 96
2019-04-23 09:00:00 11.5 14 Sudoeste 26 Sudoeste 3 -- -- 96
2019-04-23 08:00:00 11.9 14 Sudoeste 30 Sudoeste 2.4 -- -- 92
2019-04-23 07:00:00 13.4 9 Sudoeste 22 Sur 0 -- -- 85
2019-04-23 06:00:00 13.6 13 Sur 22 Sudoeste 0 -- -- 86
2019-04-23 05:00:00 13.7 16 Sudoeste 29 Sudoeste 0 -- -- 85
2019-04-23 04:00:00 14.2 19 Sudoeste 28 Sudoeste 0 -- -- 84
2019-04-23 03:00:00 14.4 21 Sudoeste 42 Sur 0 -- -- 81
2019-04-23 02:00:00 14.3 21 Sudoeste 39 Sudoeste 0 -- -- 81
2019-04-23 01:00:00 14.2 21 Sudoeste 41 Sudoeste 0 -- -- 82
2019-04-23 00:00:00 14.7 26 Sudoeste 45 Sudoeste 0 -- -- 81
2019-04-22 23:00:00 15.6 30 Sudoeste 46 Sudoeste 0 -- -- 80
2019-04-22 22:00:00 16.7 24 Sudoeste 51 Sudoeste 0 -- -- 66
2019-04-22 21:00:00 18.4 28 Sudoeste 46 Sudoeste 0 -- -- 55
2019-04-22 20:00:00 21 31 Sudoeste 46 Sudoeste 0 -- -- 50
2019-04-22 19:00:00 22.1 16 Sudoeste 37 Sudoeste 0 -- -- 45
2019-04-22 18:00:00 22 15 Sudoeste 32 Sudoeste 0 -- -- 47
2019-04-22 17:00:00 21.9 18 Sudoeste 33 Sudoeste 0 -- -- 49
2019-04-22 16:00:00 22.1 17 Sudoeste 31 Sudoeste 0 -- -- 49
2019-04-22 15:00:00 21.4 7 Sudoeste 28 Sudoeste 0 -- -- 49
2019-04-22 14:00:00 20.2 10 Sudoeste 33 Sudoeste 0 -- -- 50
2019-04-22 13:00:00 19 8 Sudoeste 20 Sudoeste 0 -- -- 56
2019-04-22 12:00:00 17.6 8 Sudoeste 17 Oeste 0 -- -- 60
2019-04-22 11:00:00 15.9 6 Sur 12 Sudoeste 0 -- -- 67
2019-04-22 10:00:00 12.7 4 Sur 8 Sur 0 -- -- 82
2019-04-22 09:00:00 9 0 Calma 7 Norte 0 -- -- 97
2019-04-22 08:00:00 6.6 3 Norte 5 Norte 0 -- -- 95
2019-04-22 07:00:00 7.2 0 Calma 6 Norte 0 -- -- 93
2019-04-22 06:00:00 8.8 0 Calma 2 Este 0 -- -- 90
2019-04-22 05:00:00 10.2 2 Sudoeste 4 Norte 0 -- -- 90
2019-04-22 04:00:00 9.2 0 Calma 3 Norte 0 -- -- 90
2019-04-22 03:00:00 9.7 0 Calma 8 Norte 0 -- -- 86
2019-04-22 02:00:00 11.4 4 Norte 6 Norte 0 -- -- 83
2019-04-22 01:00:00 12.2 5 Norte 9 Nordeste 0 -- -- 79
2019-04-22 00:00:00 12.3 3 Norte 6 Norte 0 -- -- 81
2019-04-21 23:00:00 13 4 Norte 17 Nordeste 0 -- -- 77
2019-04-21 22:00:00 14.5 14 Nordeste 24 Nordeste 0 -- -- 65
2019-04-21 21:00:00 14.9 10 Norte 21 Nordeste 0 -- -- 65
2019-04-21 20:00:00 15.8 14 Nordeste 30 Nordeste 0 -- -- 62
2019-04-21 19:00:00 16.4 18 Nordeste 30 Nordeste 0 -- -- 60
2019-04-21 18:00:00 16.8 19 Nordeste 31 Nordeste 0 -- -- 61
2019-04-21 17:00:00 16.4 23 Nordeste 32 Nordeste 0 -- -- 60
2019-04-21 16:00:00 17.2 15 Nordeste 26 Este 0 -- -- 60
2019-04-21 15:00:00 16.8 16 Nordeste 26 Nordeste 0 -- -- 62
2019-04-21 14:00:00 16.2 13 Norte 25 Nordeste 0 -- -- 64
2019-04-21 13:00:00 16 15 Nordeste 28 Nordeste 0 -- -- 64
2019-04-21 12:00:00 14.8 17 Nordeste 33 Nordeste 0 -- -- 67
2019-04-21 11:00:00 13.6 19 Nordeste 33 Nordeste 0 -- -- 72
2019-04-21 10:00:00 12.9 18 Nordeste 33 Nordeste 0 -- -- 77
2019-04-21 09:00:00 11.9 19 Nordeste 28 Norte 0 -- -- 83
2019-04-21 08:00:00 11.6 13 Norte 27 Norte 0 -- -- 82
2019-04-21 07:00:00 12.4 16 Nordeste 26 Nordeste 0 -- -- 74
2019-04-21 06:00:00 12.7 18 Nordeste 26 Nordeste 0 -- -- 72
2019-04-21 05:00:00 12.9 15 Nordeste 22 Nordeste 0 -- -- 71
2019-04-21 04:00:00 13 9 Nordeste 25 Nordeste 0 -- -- 71
2019-04-21 03:00:00 13.4 14 Nordeste 24 Nordeste 0 -- -- 69
2019-04-21 02:00:00 13.3 12 Nordeste 27 Nordeste 0 -- -- 70
2019-04-21 01:00:00 14.2 16 Nordeste 29 Nordeste 0 -- -- 67
2019-04-21 00:00:00 14.6 21 Nordeste 36 Nordeste 0 -- -- 64
2019-04-20 23:00:00 15.2 22 Nordeste 38 Nordeste 0 -- -- 63
2019-04-20 22:00:00 15.6 23 Nordeste 42 Nordeste 0 -- -- 65
2019-04-20 21:00:00 16.1 27 Nordeste 44 Nordeste 0 -- -- 65
2019-04-20 20:00:00 17.2 26 Nordeste 48 Nordeste 0 -- -- 61
2019-04-20 19:00:00 18.2 28 Nordeste 51 Nordeste 0 -- -- 58
2019-04-20 18:00:00 19.4 27 Nordeste 43 Nordeste 0 -- -- 56
2019-04-20 17:00:00 19.3 27 Nordeste 47 Nordeste 0 -- -- 57
2019-04-20 16:00:00 19.7 26 Nordeste 44 Nordeste 0 -- -- 58
2019-04-20 15:00:00 18.9 18 Nordeste 40 Nordeste 0 -- -- 64
2019-04-20 14:00:00 17.6 16 Nordeste 36 Nordeste 0 -- -- 69
2019-04-20 13:00:00 16.4 22 Nordeste 36 Nordeste 0 -- -- 73
2019-04-20 12:00:00 14.7 10 Nordeste 24 Nordeste 0 -- -- 83
2019-04-20 11:00:00 13 9 Nordeste 22 Nordeste 0 -- -- 89
2019-04-20 10:00:00 11.6 16 Nordeste 25 Nordeste 0 -- -- 93
2019-04-20 09:00:00 10.5 17 Nordeste 26 Nordeste 0.4 -- -- 93
2019-04-20 08:00:00 9.9 3 Norte 19 Nordeste 0 -- -- 92
2019-04-20 07:00:00 10 13 Norte 19 Norte 0 -- -- 91
2019-04-20 06:00:00 10 11 Nordeste 19 Norte 0 -- -- 90
2019-04-20 05:00:00 10.4 13 Nordeste 19 Nordeste 0 -- -- 86
2019-04-20 04:00:00 9.1 4 Noroeste 10 Noroeste 0 -- -- 94
2019-04-20 03:00:00 9.3 8 Noroeste 18 Nordeste 0 -- -- 94
2019-04-20 02:00:00 11.1 16 Nordeste 21 Nordeste 0 -- -- 91
2019-04-20 01:00:00 10.3 9 Norte 15 Norte 0 -- -- 92
2019-04-20 00:00:00 11.1 4 Norte 10 Nordeste 0 -- -- 90
2019-04-19 23:00:00 13 2 Norte 8 Este 0 -- -- 88
2019-04-19 22:00:00 13.8 4 Sudeste 9 Sur 0 -- -- 81
2019-04-19 21:00:00 13.7 8 Norte 13 Norte 0 -- -- 88
2019-04-19 20:00:00 14.6 2 Este 18 Norte 0 -- -- 85
2019-04-19 19:00:00 14.4 6 Norte 28 Nordeste 0 -- -- 83
2019-04-19 18:00:00 16.7 4 Nordeste 32 Este 1.8 -- -- 79
2019-04-19 17:00:00 19.6 14 Sudeste 23 Sudeste 0.2 -- -- 68
2019-04-19 16:00:00 18.8 6 Sudoeste 12 Sudoeste 0 -- -- 58
2019-04-19 15:00:00 18.5 6 Noroeste 13 Sur 0 -- -- 60
2019-04-19 14:00:00 17.7 3 Sur 14 Sudeste 0.2 -- -- 62
2019-04-19 13:00:00 17.2 5 Sudeste 11 Sudeste 0 -- -- 64
2019-04-19 12:00:00 14.5 4 Este 8 Sudoeste 0 -- -- 79
2019-04-19 11:00:00 13 4 Sur 6 Sudoeste 0 -- -- 86
2019-04-19 10:00:00 11.7 2 Noroeste 4 Noroeste 0 -- -- 95
2019-04-19 09:00:00 10.1 0 Calma 3 Este 0 -- -- 99
2019-04-19 08:00:00 9 0 Calma 6 Norte 0 -- -- 98
2019-04-19 07:00:00 8.9 3 Norte 5 Norte 0 -- -- 98
2019-04-19 06:00:00 9.6 0 Calma 2 Este 0 -- -- 98
2019-04-19 05:00:00 9.6 0 Calma 6 Norte 0 -- -- 98
2019-04-19 04:00:00 9.1 4 Norte 5 Norte 0 -- -- 98
2019-04-19 03:00:00 8.8 0 Calma 2 Norte 0 -- -- 98
2019-04-19 02:00:00 9.4 0 Calma 4 Sudeste 0 -- -- 98
2019-04-19 01:00:00 9 3 Sur 4 Oeste 0 -- -- 97
2019-04-19 00:00:00 8.6 0 Calma 5 Este 0 -- -- 96
2019-04-18 23:00:00 9.3 0 Calma 5 Norte 0 -- -- 94
2019-04-18 22:00:00 11 2 Sudoeste 5 Sudoeste 0 -- -- 92
2019-04-18 21:00:00 11.5 4 Sudeste 15 Sur 0.2 -- -- 92
2019-04-18 20:00:00 12.2 10 Sur 28 Oeste 0.4 -- -- 92
2019-04-18 19:00:00 14.1 15 Sudoeste 34 Sudoeste 0 -- -- 79
2019-04-18 18:00:00 14.3 5 Norte 24 Norte 0.2 -- -- 81
2019-04-18 17:00:00 13 16 Norte 27 Norte 0.2 -- -- 86
2019-04-18 16:00:00 16.6 6 Oeste 12 Sudoeste 0 -- -- 68
2019-04-18 15:00:00 14.6 8 Sudoeste 22 Sudoeste 0.8 -- -- 86
2019-04-18 14:00:00 12.9 12 Oeste 26 Sudoeste 1.4 -- -- 92
2019-04-18 13:00:00 13.6 12 Sudoeste 25 Sudoeste 0.4 -- -- 86
2019-04-18 12:00:00 17.4 5 Sudoeste 15 Sur 0 -- -- 71
2019-04-18 11:00:00 15.3 10 Sudoeste 17 Sudoeste 0 -- -- 78
2019-04-18 10:00:00 14.4 8 Sudoeste 12 Oeste 0 -- -- 86
2019-04-18 09:00:00 12.3 2 Sudoeste 4 Sudoeste 0 -- -- 93
2019-04-18 08:00:00 11.8 4 Sudoeste 6 Sudoeste 0 -- -- 93
2019-04-18 07:00:00 12.3 3 Sudoeste 6 Sudoeste 0.4 -- -- 91
2019-04-18 06:00:00 12.4 4 Este 8 Este 0 -- -- 87
2019-04-18 05:00:00 12.9 3 Este 5 Este 0 -- -- 84
2019-04-18 04:00:00 13.3 3 Sudeste 5 Este 0 -- -- 82
2019-04-18 03:00:00 14 3 Oeste 35 Sur 0 -- -- 76
2019-04-18 02:00:00 15.2 11 Sur 31 Sudeste 0 -- -- 68
2019-04-18 01:00:00 14.9 10 Sudeste 22 Sudeste 0 -- -- 67
2019-04-18 00:00:00 14.6 7 Sudeste 15 Sudeste 0 -- -- 67
2019-04-17 23:00:00 14.6 13 Sur 21 Sudoeste 0 -- -- 68
2019-04-17 22:00:00 14.9 14 Sudoeste 31 Sudoeste 0 -- -- 67
2019-04-17 21:00:00 15.6 15 Sudoeste 42 Sudoeste 0 -- -- 69
2019-04-17 20:00:00 18.4 17 Sudoeste 38 Sudoeste 0 -- -- 62
2019-04-17 19:00:00 19.1 17 Sudoeste 33 Sudoeste 0 -- -- 64
2019-04-17 18:00:00 20.7 15 Sudoeste 33 Sudoeste 0 -- -- 58
2019-04-17 17:00:00 20.9 19 Sudoeste 45 Sudoeste 0 -- -- 56
2019-04-17 16:00:00 20.5 26 Sudoeste 48 Sudoeste 0 -- -- 56
2019-04-17 15:00:00 20.7 23 Sudoeste 36 Sur 0 -- -- 56
2019-04-17 14:00:00 21.6 24 Sudoeste 33 Sudoeste 0 -- -- 55
2019-04-17 13:00:00 23.3 19 Sur 35 Sur 0 -- -- 49
2019-04-17 12:00:00 23.3 17 Sur 29 Sur 0 -- -- 46
2019-04-17 11:00:00 17.5 3 Norte 13 Norte 0 -- -- 63
2019-04-17 10:00:00 14.7 7 Norte 13 Norte 0 -- -- 68
2019-04-17 09:00:00 12.9 5 Norte 12 Nordeste 0 -- -- 73
2019-04-17 08:00:00 13.6 10 Nordeste 27 Este 0 -- -- 64
2019-04-17 07:00:00 13.6 10 Nordeste 21 Nordeste 0 -- -- 62
2019-04-17 06:00:00 12.4 7 Nordeste 14 Este 0 -- -- 69
2019-04-17 05:00:00 12.4 4 Norte 10 Norte 0 -- -- 69
2019-04-17 04:00:00 14.5 3 Noroeste 26 Sur 0 -- -- 63
2019-04-17 03:00:00 13.4 12 Sudoeste 18 Sudoeste 0 -- -- 70
2019-04-17 02:00:00 11.1 3 Sudeste 6 Este 0 -- -- 75
2019-04-17 01:00:00 13.4 4 Noroeste 10 Sudoeste 0 -- -- 63
2019-04-17 00:00:00 16 4 Noroeste 26 Sur 0 -- -- 53
2019-04-16 23:00:00 18.4 13 Sur 28 Sur 0 -- -- 44
2019-04-16 22:00:00 19.3 14 Sur 24 Sur 0 -- -- 34
2019-04-16 21:00:00 21.6 12 Sur 24 Sur 0 -- -- 35
2019-04-16 20:00:00 24.8 13 Sudoeste 23 Sur 0 -- -- 33
2019-04-16 19:00:00 26.5 18 Sudoeste 31 Sudoeste 0 -- -- 33
2019-04-16 18:00:00 26.9 11 Oeste 23 Sudoeste 0 -- -- 34
2019-04-16 17:00:00 25.8 8 Oeste 14 Este 0 -- -- 45
2019-04-16 16:00:00 24.9 5 Este 18 Sudoeste 0 -- -- 44
2019-04-16 15:00:00 23.5 6 Este 19 Nordeste 0 -- -- 47
2019-04-16 14:00:00 21.8 7 Nordeste 22 Este 0 -- -- 54
2019-04-16 13:00:00 19.9 10 Nordeste 22 Nordeste 0 -- -- 62
2019-04-16 12:00:00 17.8 8 Norte 19 Nordeste 0 -- -- 75
2019-04-16 11:00:00 16 11 Norte 21 Norte 0 -- -- 80
2019-04-16 10:00:00 14.1 3 Norte 6 Norte 0 -- -- 90
2019-04-16 09:00:00 9.5 0 Calma 7 Norte 0 -- -- 99
2019-04-16 08:00:00 7.2 3 Norte 6 Norte 0 -- -- 96
2019-04-16 07:00:00 7.3 3 Norte 5 Norte 0 -- -- 95
2019-04-16 06:00:00 8.7 3 Norte 8 Norte 0 -- -- 95
2019-04-16 05:00:00 9.5 3 Norte 5 Norte 0 -- -- 94
2019-04-16 04:00:00 10.3 0 Calma 4 Este 0 -- -- 91
2019-04-16 03:00:00 11.6 0 Calma 8 Sur 0 -- -- 88
2019-04-16 02:00:00 13 2 Sudoeste 15 Sudoeste 0 -- -- 88
2019-04-16 01:00:00 14.3 6 Sudeste 17 Sur 0 -- -- 85
2019-04-16 00:00:00 15.5 11 Sudoeste 26 Sudoeste 0 -- -- 82
2019-04-15 23:00:00 16.2 15 Sudoeste 32 Sudoeste 0 -- -- 78
2019-04-15 22:00:00 17.1 19 Sudoeste 39 Sudoeste 0 -- -- 71
2019-04-15 21:00:00 18.9 27 Sudoeste 46 Sudoeste 0 -- -- 63
2019-04-15 20:00:00 21.5 31 Sudoeste 45 Sudoeste 0 -- -- 55
2019-04-15 19:00:00 23.7 33 Sudoeste 47 Sudoeste 0 -- -- 47
2019-04-15 18:00:00 25.3 25 Sudoeste 42 Sudoeste 0 -- -- 36
2019-04-15 17:00:00 26 24 Sudoeste 42 Sudoeste 0 -- -- 35
2019-04-15 16:00:00 26.2 24 Sudoeste 40 Sudoeste 0 -- -- 34
2019-04-15 15:00:00 25.9 19 Sudoeste 34 Sudoeste 0 -- -- 43
2019-04-15 14:00:00 24.7 13 Oeste 28 Sudoeste 0 -- -- 48
2019-04-15 13:00:00 23 19 Sudoeste 30 Sudoeste 0 -- -- 50
2019-04-15 12:00:00 21.8 15 Sudoeste 26 Sur 0 -- -- 61
2019-04-15 11:00:00 19.5 9 Sudoeste 14 Sudoeste 0 -- -- 67
2019-04-15 10:00:00 17.1 3 Oeste 6 Oeste 0 -- -- 78
2019-04-15 09:00:00 13.4 0 Calma 7 Nordeste 0 -- -- 89
2019-04-15 08:00:00 12.6 4 Norte 14 Norte 0 -- -- 89
2019-04-15 07:00:00 12.8 8 Norte 14 Norte 0 -- -- 90
2019-04-15 06:00:00 13.3 6 Norte 12 Norte 0 -- -- 89
2019-04-15 05:00:00 13.8 6 Norte 9 Nordeste 0 -- -- 87
2019-04-15 04:00:00 13.9 4 Norte 9 Norte 0 -- -- 87
2019-04-15 03:00:00 14.2 5 Norte 9 Norte 0 -- -- 85
2019-04-15 02:00:00 15.2 4 Norte 8 Norte 0 -- -- 83
2019-04-15 01:00:00 15.5 2 Norte 6 Norte 0 -- -- 82
2019-04-15 00:00:00 15.5 4 Norte 7 Norte 0 -- -- 83
2019-04-14 23:00:00 17.1 5 Norte 7 Norte 0 -- -- 78
2019-04-14 22:00:00 18.1 5 Norte 9 Norte 0 -- -- 74
2019-04-14 21:00:00 19.9 0 Calma 7 Oeste 0 -- -- 73
2019-04-14 20:00:00 23.9 4 Sudoeste 10 Sudoeste 0 -- -- 57
2019-04-14 19:00:00 24.6 6 Sudoeste 13 Oeste 0 -- -- 54
2019-04-14 18:00:00 26 6 Noroeste 17 Oeste 0 -- -- 44
2019-04-14 17:00:00 26.3 8 Sudoeste 16 Oeste 0 -- -- 44
2019-04-14 16:00:00 25.4 7 Sur 14 Sudoeste 0 -- -- 47
2019-04-14 15:00:00 24.3 7 Sudoeste 14 Oeste 0 -- -- 48
2019-04-14 14:00:00 23.2 6 Sudoeste 14 Sudoeste 0 -- -- 47
2019-04-14 13:00:00 21 5 Noroeste 9 Norte 0 -- -- 54
2019-04-14 12:00:00 19.1 4 Norte 9 Nordeste 0 -- -- 57
2019-04-14 11:00:00 17.3 4 Nordeste 10 Norte 0 -- -- 58
2019-04-14 10:00:00 14.4 4 Norte 10 Norte 0 -- -- 75
2019-04-14 09:00:00 8.6 3 Norte 8 Norte 0 -- -- 93
2019-04-14 08:00:00 7.2 0 Calma 6 Norte 0 -- -- 91
2019-04-14 07:00:00 7.5 6 Norte 8 Norte 0 -- -- 92
2019-04-14 06:00:00 7.7 5 Norte 8 Norte 0 -- -- 91
2019-04-14 05:00:00 8.3 4 Norte 6 Norte 0 -- -- 90
2019-04-14 04:00:00 8.2 2 Este 5 Este 0 -- -- 90
2019-04-14 03:00:00 8.8 0 Calma 5 Este 0 -- -- 90
2019-04-14 02:00:00 10 2 Sur 5 Este 0 -- -- 85
2019-04-14 01:00:00 10.3 3 Sur 9 Sur 0 -- -- 84
2019-04-14 00:00:00 10.2 2 Sudeste 4 Sudeste 0 -- -- 84
2019-04-13 23:00:00 11.3 2 Este 4 Este 0 -- -- 82
2019-04-13 22:00:00 13.6 3 Norte 5 Sudoeste 0 -- -- 75
2019-04-13 21:00:00 17.9 2 Sur 18 Sudoeste 0 -- -- 64
2019-04-13 20:00:00 21.7 12 Sudoeste 19 Sudoeste 0 -- -- 44
2019-04-13 19:00:00 23.8 6 Oeste 17 Sudoeste 0 -- -- 36
2019-04-13 18:00:00 24 9 Oeste 19 Sudoeste 0 -- -- 36
2019-04-13 17:00:00 24.1 8 Sur 18 Oeste 0 -- -- 37
2019-04-13 16:00:00 23.5 9 Sudoeste 19 Sudoeste 0 -- -- 36
2019-04-13 15:00:00 22.7 6 Sur 18 Noroeste 0 -- -- 37
2019-04-13 14:00:00 21.5 10 Sudoeste 16 Sudoeste 0 -- -- 40
2019-04-13 13:00:00 20.2 6 Sudoeste 10 Sudoeste 0 -- -- 44
2019-04-13 12:00:00 17.7 3 Oeste 8 Sudoeste 0 -- -- 60
2019-04-13 11:00:00 15.3 3 Norte 8 Norte 0 -- -- 66
2019-04-13 10:00:00 12.7 4 Norte 8 Noroeste 0 -- -- 79
2019-04-13 09:00:00 6.5 0 Calma 5 Norte 0 -- -- 97
2019-04-13 08:00:00 5 4 Norte 6 Norte 0 -- -- 94
2019-04-13 07:00:00 4.9 0 Calma 6 Norte 0 -- -- 92
2019-04-13 06:00:00 5.5 0 Calma 5 Norte 0 -- -- 92
2019-04-13 05:00:00 6.4 3 Norte 5 Norte 0 -- -- 91
2019-04-13 04:00:00 7.4 5 Norte 6 Norte 0 -- -- 89
2019-04-13 03:00:00 7.1 0 Calma 4 Este 0 -- -- 91
2019-04-13 02:00:00 7.6 2 Norte 5 Norte 0 -- -- 88
2019-04-13 01:00:00 8.6 0 Calma 8 Este 0 -- -- 86
2019-04-13 00:00:00 9.8 5 Norte 8 Norte 0 -- -- 82
2019-04-12 23:00:00 11.3 4 Norte 9 Norte 0 -- -- 77
2019-04-12 22:00:00 11.7 2 Nordeste 5 Este 0 -- -- 79
2019-04-12 21:00:00 16.6 4 Oeste 8 Sudoeste 0 -- -- 58
2019-04-12 20:00:00 20.8 5 Sur 15 Sudoeste 0 -- -- 40
2019-04-12 19:00:00 22.1 7 Sur 15 Sudoeste 0 -- -- 38
2019-04-12 18:00:00 22.1 5 Este 15 Sur 0 -- -- 34
2019-04-12 17:00:00 21.4 5 Norte 19 Noroeste 0 -- -- 37
2019-04-12 16:00:00 20.9 8 Nordeste 18 Norte 0 -- -- 37
2019-04-12 15:00:00 20.9 6 Sudoeste 13 Sudoeste 0 -- -- 44
2019-04-12 14:00:00 19.2 4 Noroeste 13 Norte 0 -- -- 48
2019-04-12 13:00:00 17.9 6 Nordeste 13 Nordeste 0 -- -- 53
2019-04-12 12:00:00 15.6 6 Nordeste 14 Norte 0 -- -- 63
2019-04-12 11:00:00 13.7 5 Noroeste 9 Norte 0 -- -- 79
2019-04-12 10:00:00 11 4 Norte 8 Norte 0 -- -- 94
2019-04-12 09:00:00 6.9 3 Norte 14 Norte 0 -- -- 99
2019-04-12 08:00:00 5.6 5 Norte 10 Norte 0 -- -- 98
2019-04-12 07:00:00 5.8 2 Norte 9 Norte 0 -- -- 97
2019-04-12 06:00:00 5.5 5 Norte 9 Norte 0 -- -- 97
2019-04-12 05:00:00 5.7 3 Norte 6 Norte 0 -- -- 95
2019-04-12 04:00:00 6.2 5 Norte 6 Norte 0 -- -- 94
2019-04-12 03:00:00 7 4 Norte 8 Norte 0 -- -- 91
2019-04-12 02:00:00 7.4 2 Norte 10 Sur 0 -- -- 90
2019-04-12 01:00:00 9.9 3 Norte 13 Norte 0 -- -- 81
2019-04-12 00:00:00 11 12 Norte 20 Nordeste 0 -- -- 74
2019-04-11 23:00:00 9.4 3 Este 5 Este 0 -- -- 85
2019-04-11 22:00:00 11.2 3 Norte 5 Norte 0 -- -- 82
2019-04-11 21:00:00 13.3 3 Norte 10 Noroeste 0 -- -- 78
2019-04-11 20:00:00 18.4 4 Oeste 13 Noroeste 0 -- -- 57
2019-04-11 19:00:00 19.8 8 Noroeste 16 Noroeste 0 -- -- 46
2019-04-11 18:00:00 19.2 5 Norte 14 Sudeste 0 -- -- 45
2019-04-11 17:00:00 20.4 7 Sudoeste 17 Sudoeste 0 -- -- 44
2019-04-11 16:00:00 19.3 4 Norte 13 Sudeste 0 -- -- 46
2019-04-11 15:00:00 18.3 6 Norte 19 Nordeste 0 -- -- 52
2019-04-11 14:00:00 17.3 6 Norte 16 Norte 0 -- -- 62
2019-04-11 13:00:00 15.9 8 Norte 15 Norte 0 -- -- 62
2019-04-11 12:00:00 14.4 9 Norte 17 Norte 0 -- -- 68
2019-04-11 11:00:00 12.8 10 Nordeste 15 Nordeste 0 -- -- 72
2019-04-11 10:00:00 9.9 2 Noroeste 5 Noroeste 0 -- -- 95
2019-04-11 09:00:00 5.2 2 Norte 3 Norte 0 -- -- 99
2019-04-11 08:00:00 4 3 Norte 6 Norte 0 -- -- 97
2019-04-11 07:00:00 4.1 3 Norte 4 Norte 0 -- -- 96
2019-04-11 06:00:00 4.4 0 Calma 5 Este 0 -- -- 95
2019-04-11 05:00:00 5.2 5 Norte 8 Norte 0 -- -- 95
2019-04-11 04:00:00 6.1 0 Calma 10 Este 0 -- -- 92
2019-04-11 03:00:00 7.3 0 Calma 8 Norte 0 -- -- 87
2019-04-11 02:00:00 9.6 7 Norte 15 Noroeste 0 -- -- 82
2019-04-11 01:00:00 10.2 9 Noroeste 12 Noroeste 0 -- -- 78
2019-04-11 00:00:00 8.6 6 Noroeste 11 Noroeste 0 -- -- 87
2019-04-10 23:00:00 9.2 3 Norte 5 Norte 0 -- -- 87
2019-04-10 22:00:00 12 0 Calma 12 Noroeste 0 -- -- 79
2019-04-10 21:00:00 14 9 Noroeste 21 Noroeste 0 -- -- 62
2019-04-10 20:00:00 17.2 15 Noroeste 27 Noroeste 0 -- -- 50
2019-04-10 19:00:00 18.4 17 Noroeste 33 Noroeste 0 -- -- 45
2019-04-10 18:00:00 18.2 9 Sudoeste 27 Sudoeste 0 -- -- 50
2019-04-10 17:00:00 18 15 Sudoeste 26 Sur 0 -- -- 62
2019-04-10 16:00:00 17.2 12 Oeste 25 Oeste 0 -- -- 62
2019-04-10 15:00:00 16.2 11 Oeste 23 Oeste 0 -- -- 61
2019-04-10 14:00:00 15.2 12 Sudoeste 20 Sudoeste 0 -- -- 67
2019-04-10 13:00:00 13.2 11 Sudoeste 20 Oeste 0 -- -- 73
2019-04-10 12:00:00 11.6 10 Sudoeste 19 Sudoeste 0 -- -- 81
2019-04-10 11:00:00 11.2 12 Sudoeste 16 Sudoeste 0 -- -- 87
2019-04-10 10:00:00 9.8 9 Sudoeste 14 Sudoeste 0 -- -- 97
2019-04-10 09:00:00 6.8 4 Sudoeste 9 Sudoeste 0 -- -- 100
2019-04-10 08:00:00 4.2 0 Calma 3 Noroeste 0 -- -- 97
2019-04-10 07:00:00 4.6 0 Calma 5 Este 0 -- -- 97
2019-04-10 06:00:00 5.3 3 Este 5 Este 0 -- -- 96
2019-04-10 05:00:00 6.3 2 Este 5 Norte 0 -- -- 94
2019-04-10 04:00:00 8 0 Calma 10 Noroeste 0 -- -- 91
2019-04-10 03:00:00 8.8 0 Calma 5 Oeste 0 -- -- 94
2019-04-10 02:00:00 10 4 Sudoeste 11 Sur 0 -- -- 94
2019-04-10 01:00:00 10.8 7 Sur 13 Sudoeste 0 -- -- 94
2019-04-10 00:00:00 10.9 3 Sur 6 Sur 0 -- -- 94
2019-04-09 23:00:00 10.3 3 Sur 9 Sur 0 -- -- 91
2019-04-09 22:00:00 11.5 0 Calma 19 Sudoeste 0 -- -- 84
2019-04-09 21:00:00 13.7 14 Sudoeste 32 Sudoeste 0 -- -- 76
2019-04-09 20:00:00 15.3 16 Sudoeste 32 Sudoeste 0 -- -- 68
2019-04-09 19:00:00 16.6 20 Sudoeste 37 Sudoeste 0 -- -- 62
2019-04-09 18:00:00 16.9 21 Oeste 40 Oeste 0 -- -- 66
2019-04-09 17:00:00 17.2 24 Sudoeste 39 Sudoeste 0 -- -- 64
2019-04-09 16:00:00 14.6 25 Sudoeste 41 Sudoeste 0.8 -- -- 75
2019-04-09 15:00:00 15.9 18 Oeste 35 Oeste 0 -- -- 67
2019-04-09 14:00:00 16.4 18 Oeste 34 Sudoeste 0 -- -- 62
2019-04-09 13:00:00 15 18 Oeste 31 Sudoeste 0 -- -- 72
2019-04-09 12:00:00 12.7 11 Sudoeste 18 Sudoeste 0 -- -- 88
2019-04-09 11:00:00 11.5 12 Sudoeste 18 Sur 0 -- -- 94
2019-04-09 10:00:00 9.4 9 Sudoeste 14 Sudoeste 0 -- -- 100
2019-04-09 09:00:00 7.1 0 Calma 3 Este 0 -- -- 100
2019-04-09 08:00:00 6.1 0 Calma 3 Norte 0 -- -- 99
2019-04-09 07:00:00 5.6 0 Calma 3 Sudeste 0 -- -- 98
2019-04-09 06:00:00 6.9 0 Calma 4 Sur 0 -- -- 99
2019-04-09 05:00:00 8.8 3 Sur 11 Sudoeste 0 -- -- 98
2019-04-09 04:00:00 9.9 4 Sudoeste 10 Sur 0 -- -- 97
2019-04-09 03:00:00 10.2 4 Sur 12 Sudoeste 0 -- -- 97
2019-04-09 02:00:00 11.5 7 Sur 17 Sudoeste 0 -- -- 97
2019-04-09 01:00:00 11.7 10 Sudoeste 26 Sudoeste 0 -- -- 96
2019-04-09 00:00:00 12.1 17 Sudoeste 31 Sudoeste 0 -- -- 94
2019-04-08 23:00:00 12.5 18 Sudoeste 34 Sudoeste 0 -- -- 93
2019-04-08 22:00:00 13.1 10 Sur 15 Sudoeste 0 -- -- 95
2019-04-08 21:00:00 13 8 Sur 25 Sudoeste 0 -- -- 95
2019-04-08 20:00:00 13.7 14 Sudoeste 41 Sudoeste 0 -- -- 95
2019-04-08 19:00:00 13.8 23 Sudoeste 43 Sudoeste 0.2 -- -- 95
2019-04-08 18:00:00 13.7 10 Sudoeste 39 Sudoeste 2 -- -- 94
2019-04-08 17:00:00 15.5 24 Sudoeste 37 Sudoeste 0 -- -- 90
2019-04-08 16:00:00 15.3 23 Sur 39 Sudoeste 0 -- -- 94
2019-04-08 15:00:00 14.2 21 Sudoeste 35 Sudoeste 0.6 -- -- 95
2019-04-08 14:00:00 14.9 24 Sudoeste 38 Sudoeste 0.8 -- -- 95
2019-04-08 13:00:00 14.7 23 Sudoeste 40 Sudoeste 0.4 -- -- 90
2019-04-08 12:00:00 13.7 20 Sudoeste 31 Sudoeste 3.2 -- -- 97
2019-04-08 11:00:00 13.9 17 Sudoeste 23 Sudoeste 1.2 -- -- 98
2019-04-08 10:00:00 13.8 11 Sur 15 Sudoeste 0 -- -- 99
2019-04-08 09:00:00 13 9 Sudoeste 19 Sudoeste 0.2 -- -- 99
2019-04-08 08:00:00 12.8 14 Sudoeste 24 Sudoeste 0.2 -- -- 99
2019-04-08 07:00:00 12.9 15 Sudoeste 25 Sur 0.2 -- -- 99
2019-04-08 06:00:00 13.1 14 Sudoeste 24 Sudoeste 0.6 -- -- 99
2019-04-08 05:00:00 13 14 Sudoeste 26 Sudoeste 0 -- -- 99
2019-04-08 04:00:00 13.2 19 Sudoeste 27 Sudoeste 0.2 -- -- 99
2019-04-08 03:00:00 13.1 11 Sudoeste 18 Sudoeste 0.2 -- -- 99
2019-04-08 02:00:00 13.1 14 Sudoeste 24 Sudoeste 0 -- -- 99
2019-04-08 01:00:00 13.4 15 Sudoeste 28 Sur 0 -- -- 99
2019-04-08 00:00:00 13.5 13 Sudoeste 20 Sudoeste 0 -- -- 99
2019-04-07 23:00:00 12.9 6 Sur 9 Sur 0 -- -- 99
2019-04-07 22:00:00 12.5 2 Nordeste 9 Norte 4 -- -- 98
2019-04-07 21:00:00 12.6 0 Calma 10 Sur 6.4 -- -- 97
2019-04-07 20:00:00 12.7 6 Sur 17 Sudoeste 1.2 -- -- 96
2019-04-07 19:00:00 13.2 8 Sudoeste 22 Sudoeste 0 -- -- 92
2019-04-07 18:00:00 13.3 14 Sudoeste 28 Sudoeste 0 -- -- 88
2019-04-07 17:00:00 14 19 Sudoeste 31 Sudoeste 0 -- -- 82
2019-04-07 16:00:00 14.5 20 Sudoeste 33 Sudoeste 0.2 -- -- 79
2019-04-07 15:00:00 15.3 15 Sudoeste 32 Sudoeste 0 -- -- 69
2019-04-07 14:00:00 14.9 15 Sudoeste 26 Oeste 0 -- -- 68
2019-04-07 13:00:00 14.5 11 Oeste 26 Sudoeste 0 -- -- 74
2019-04-07 12:00:00 12.6 15 Sudoeste 23 Sudoeste 0 -- -- 92
2019-04-07 11:00:00 10.6 14 Sudoeste 21 Sudoeste 0 -- -- 99
2019-04-07 10:00:00 9.4 9 Sudoeste 14 Sur 0 -- -- 100
2019-04-07 09:00:00 8.5 0 Calma 10 Sudoeste 0 -- -- 100
2019-04-07 08:00:00 8.4 4 Sur 16 Sudoeste 0 -- -- 100
2019-04-07 07:00:00 8.4 10 Sudoeste 16 Sudoeste 0 -- -- 100
2019-04-07 06:00:00 8.2 10 Sudoeste 15 Sudoeste 0 -- -- 100
2019-04-07 05:00:00 8.1 9 Sudoeste 14 Sudoeste 0 -- -- 100
2019-04-07 04:00:00 7.8 8 Sudoeste 18 Sudoeste 0 -- -- 100
2019-04-07 03:00:00 8.2 12 Sudoeste 18 Sudoeste 0 -- -- 99
2019-04-07 02:00:00 8.3 8 Sur 14 Sur 0 -- -- 100
2019-04-07 01:00:00 8.2 12 Sudoeste 17 Sudoeste 0 -- -- 99
2019-04-07 00:00:00 7.4 4 Sur 13 Sur 0.4 -- -- 99
2019-04-06 23:00:00 7.6 8 Noroeste 18 Noroeste 1.4 -- -- 98
2019-04-06 22:00:00 7.4 7 Sudeste 22 Sudoeste 0 -- -- 95
2019-04-06 21:00:00 8.1 17 Sudoeste 29 Oeste 7 -- -- 92
2019-04-06 20:00:00 10.5 7 Noroeste 20 Oeste 0 -- -- 84
2019-04-06 19:00:00 10.8 12 Noroeste 41 Sudoeste 1.2 -- -- 88
2019-04-06 18:00:00 11.5 30 Sudoeste 47 Sudoeste 0 -- -- 80
2019-04-06 17:00:00 12 32 Sudoeste 49 Sudoeste 0.2 -- -- 83
2019-04-06 16:00:00 9.8 15 Oeste 51 Noroeste 4 -- -- 92
2019-04-06 15:00:00 12.1 21 Sudoeste 36 Sudoeste 0 -- -- 76
2019-04-06 14:00:00 12.7 26 Sudoeste 44 Sudoeste 0 -- -- 76
2019-04-06 13:00:00 12.4 20 Sudoeste 32 Sudoeste 0 -- -- 83
2019-04-06 12:00:00 10.2 15 Sudoeste 22 Sudoeste 0 -- -- 93
2019-04-06 11:00:00 8.7 12 Sudoeste 16 Sur 0.8 -- -- 97
2019-04-06 10:00:00 7.8 12 Sur 23 Sur 0.4 -- -- 98
2019-04-06 09:00:00 6.2 4 Sur 8 Sur 0 -- -- 100
2019-04-06 08:00:00 4.1 3 Sur 5 Este 0 -- -- 98
2019-04-06 07:00:00 4.2 3 Noroeste 6 Sudeste 0 -- -- 97
2019-04-06 06:00:00 4.9 0 Calma 11 Sur 0 -- -- 97
2019-04-06 05:00:00 5.4 8 Sur 12 Sur 0 -- -- 96
2019-04-06 04:00:00 6.4 5 Sur 13 Sudoeste 0 -- -- 95
2019-04-06 03:00:00 7.5 9 Sudoeste 23 Sudoeste 0 -- -- 95
2019-04-06 02:00:00 7 12 Sudoeste 23 Sudoeste 0 -- -- 95
2019-04-06 01:00:00 6.6 10 Sudoeste 16 Sudoeste 0 -- -- 95
2019-04-06 00:00:00 7.3 11 Sudoeste 17 Sudoeste 0 -- -- 94
2019-04-05 23:00:00 8.1 3 Sudoeste 26 Sudoeste 0.4 -- -- 90
2019-04-05 22:00:00 7.9 9 Sudoeste 45 Oeste 0.2 -- -- 89
2019-04-05 21:00:00 10 21 Sudoeste 48 Sudoeste 0 -- -- 77
2019-04-05 20:00:00 12.7 29 Sudoeste 43 Sudoeste 0 -- -- 64
2019-04-05 19:00:00 14.5 24 Sudoeste 46 Sudoeste 0 -- -- 49
2019-04-05 18:00:00 15 20 Sudoeste 46 Sudoeste 0 -- -- 54
2019-04-05 17:00:00 13.9 30 Sudoeste 49 Oeste 0.4 -- -- 66
2019-04-05 16:00:00 13.8 21 Sudoeste 42 Oeste 0.2 -- -- 59
2019-04-05 15:00:00 14 23 Sudoeste 40 Sudoeste 0 -- -- 67
2019-04-05 14:00:00 11.8 23 Oeste 41 Sudoeste 0.2 -- -- 86
2019-04-05 13:00:00 11 27 Sudoeste 36 Sudoeste 0 -- -- 93
2019-04-05 12:00:00 10.5 18 Sur 29 Sur 0 -- -- 94
2019-04-05 11:00:00 9.4 13 Sur 30 Sur 3.6 -- -- 95
2019-04-05 10:00:00 9 11 Sudoeste 19 Sur 2.6 -- -- 94
2019-04-05 09:00:00 8.8 9 Sur 38 Sudoeste 2.4 -- -- 93
2019-04-05 08:00:00 9.5 12 Sur 17 Sur 0.8 -- -- 92
2019-04-05 07:00:00 9.7 14 Sur 28 Sur 0 -- -- 87
2019-04-05 06:00:00 9.6 8 Sur 14 Sudoeste 0 -- -- 73
2019-04-05 05:00:00 9.8 10 Sudoeste 23 Sudoeste 0 -- -- 71
2019-04-05 04:00:00 9.9 15 Sudoeste 26 Sudoeste 0 -- -- 71
2019-04-05 03:00:00 10.1 14 Sudoeste 24 Sudoeste 0 -- -- 71
2019-04-05 02:00:00 8.7 14 Sudoeste 20 Sudoeste 0 -- -- 73
2019-04-05 01:00:00 8.5 10 Sudoeste 23 Sudoeste 0 -- -- 68
2019-04-05 00:00:00 10 8 Sur 25 Sudoeste 0 -- -- 62
2019-04-04 23:00:00 11 14 Sudoeste 32 Sudoeste 0 -- -- 57
2019-04-04 22:00:00 12 18 Sudoeste 28 Sudoeste 0 -- -- 48
2019-04-04 21:00:00 13.8 15 Sudoeste 37 Sudoeste 0 -- -- 45
2019-04-04 20:00:00 16.6 23 Sudoeste 36 Sudoeste 0 -- -- 41
2019-04-04 19:00:00 18.1 22 Sudoeste 35 Sudoeste 0 -- -- 32
2019-04-04 18:00:00 18.9 23 Sudoeste 37 Sudoeste 0 -- -- 31
2019-04-04 17:00:00 18.8 18 Sudoeste 33 Sudoeste 0 -- -- 35
2019-04-04 16:00:00 18.3 20 Sudoeste 31 Sudoeste 0 -- -- 37
2019-04-04 15:00:00 17.5 15 Sudoeste 28 Sudoeste 0 -- -- 39
2019-04-04 14:00:00 15.9 8 Sudoeste 24 Sudoeste 0 -- -- 44
2019-04-04 13:00:00 14.4 11 Sudoeste 21 Sudoeste 0 -- -- 46
2019-04-04 12:00:00 13.1 7 Sudoeste 17 Sudoeste 0 -- -- 50
2019-04-04 11:00:00 10.5 6 Oeste 13 Sudoeste 0 -- -- 60
2019-04-04 10:00:00 8.1 2 Sur 4 Sudoeste 0 -- -- 70
2019-04-04 09:00:00 2.2 0 Calma 4 Sur 0 -- -- 90
2019-04-04 08:00:00 1.7 2 Nordeste 6 Norte 0 -- -- 86
2019-04-04 07:00:00 1.9 0 Calma 4 Sudeste 0 -- -- 86
2019-04-04 06:00:00 2.4 2 Este 5 Este 0 -- -- 86
2019-04-04 05:00:00 3.3 2 Norte 3 Norte 0 -- -- 84
2019-04-04 04:00:00 4 0 Calma 4 Norte 0 -- -- 85
2019-04-04 03:00:00 5.7 0 Calma 6 Norte 0 -- -- 81
2019-04-04 02:00:00 6.8 4 Norte 8 Norte 0 -- -- 82
2019-04-04 01:00:00 7.5 3 Norte 6 Nordeste 0 -- -- 82
2019-04-04 00:00:00 8.6 3 Nordeste 5 Este 0 -- -- 79
2019-04-03 23:00:00 10.8 3 Nordeste 10 Noroeste 0 -- -- 71
2019-04-03 22:00:00 13.5 9 Noroeste 14 Sudoeste 0 -- -- 60
2019-04-03 21:00:00 16.3 13 Sudoeste 32 Sudoeste 0 -- -- 50
2019-04-03 20:00:00 19.3 19 Sudoeste 33 Sudoeste 0 -- -- 40
2019-04-03 19:00:00 21.2 19 Sudoeste 38 Sudoeste 0 -- -- 37
2019-04-03 18:00:00 21.9 23 Sudoeste 40 Sudoeste 0 -- -- 37
2019-04-03 17:00:00 22.5 22 Sudoeste 40 Sudoeste 0 -- -- 38
2019-04-03 16:00:00 22.3 26 Sudoeste 35 Sudoeste 0 -- -- 41
2019-04-03 15:00:00 22.1 21 Sudoeste 33 Sudoeste 0 -- -- 45
2019-04-03 14:00:00 20.5 14 Sudoeste 25 Sudoeste 0 -- -- 53
2019-04-03 13:00:00 19.5 9 Sudoeste 17 Sudoeste 0 -- -- 62
2019-04-03 12:00:00 17.6 5 Sur 12 Oeste 0 -- -- 70
2019-04-03 11:00:00 14.9 4 Sudoeste 12 Sudoeste 0 -- -- 81
2019-04-03 10:00:00 11.5 0 Calma 5 Norte 0 -- -- 98
2019-04-03 09:00:00 6.8 0 Calma 6 Norte 0 -- -- 98
2019-04-03 08:00:00 5.9 0 Calma 5 Norte 0 -- -- 96
2019-04-03 07:00:00 6.8 3 Norte 4 Norte 0 -- -- 96
2019-04-03 06:00:00 7 0 Calma 7 Norte 0 -- -- 95
2019-04-03 05:00:00 7.5 2 Noroeste 8 Norte 0 -- -- 96
2019-04-03 04:00:00 7.2 0 Calma 4 Norte 0 -- -- 94
2019-04-03 03:00:00 7.6 0 Calma 4 Norte 0 -- -- 92
2019-04-03 02:00:00 8.5 3 Norte 4 Norte 0 -- -- 91
2019-04-03 01:00:00 9.5 2 Norte 5 Norte 0 -- -- 89
2019-04-03 00:00:00 10.6 3 Nordeste 7 Norte 0 -- -- 87
2019-04-02 23:00:00 11.4 3 Norte 6 Norte 0 -- -- 85
2019-04-02 22:00:00 12.3 0 Calma 5 Este 0 -- -- 85
2019-04-02 21:00:00 15.7 0 Calma 12 Sudoeste 0 -- -- 75
2019-04-02 20:00:00 19 10 Sudoeste 18 Sudoeste 0 -- -- 60
2019-04-02 19:00:00 21 13 Sudoeste 19 Sudoeste 0 -- -- 52
2019-04-02 18:00:00 21.2 8 Sudoeste 18 Sudoeste 0 -- -- 50
2019-04-02 17:00:00 21.1 7 Sudoeste 19 Sur 0 -- -- 53
2019-04-02 16:00:00 20.9 8 Sudoeste 15 Sudoeste 0 -- -- 56
2019-04-02 15:00:00 19.4 6 Nordeste 11 Noroeste 0 -- -- 60
2019-04-02 14:00:00 18.3 5 Noroeste 12 Norte 0 -- -- 68
2019-04-02 13:00:00 16.1 3 Oeste 8 Sur 0 -- -- 74
2019-04-02 12:00:00 15.2 5 Noroeste 10 Noroeste 0 -- -- 78
2019-04-02 11:00:00 14.3 4 Nordeste 12 Norte 0 -- -- 90
2019-04-02 10:00:00 11.6 0 Calma 8 Norte 0 -- -- 100
2019-04-02 09:00:00 8.4 3 Norte 5 Norte 0 -- -- 100
2019-04-02 08:00:00 8 0 Calma 5 Norte 0 -- -- 97
2019-04-02 07:00:00 9.7 0 Calma 5 Este 0 -- -- 98
2019-04-02 06:00:00 9.1 2 Sudeste 6 Norte 0 -- -- 99
2019-04-02 05:00:00 8.7 5 Norte 6 Norte 0 -- -- 97
2019-04-02 04:00:00 9.4 3 Norte 6 Norte 0 -- -- 98
2019-04-02 03:00:00 8.9 4 Norte 8 Norte 0 -- -- 97
2019-04-02 02:00:00 9.7 0 Calma 6 Norte 0 -- -- 96
2019-04-02 01:00:00 10.3 0 Calma 3 Sur 0 -- -- 94
2019-04-02 00:00:00 10.9 2 Oeste 9 Sur 0 -- -- 95
2019-04-01 23:00:00 10.6 2 Sudoeste 5 Sur 0 -- -- 92
2019-04-01 22:00:00 12.7 4 Sudoeste 10 Sur 0 -- -- 88
2019-04-01 21:00:00 13.8 7 Sur 12 Sur 0.2 -- -- 86
2019-04-01 20:00:00 14.4 9 Sur 17 Sur 0 -- -- 84
2019-04-01 19:00:00 15.9 16 Sudoeste 21 Sudoeste 0 -- -- 85
2019-04-01 18:00:00 17.7 10 Sur 20 Sudeste 0 -- -- 69
2019-04-01 17:00:00 17.1 12 Sur 22 Sudoeste 0 -- -- 73
2019-04-01 16:00:00 17.6 15 Sudoeste 23 Sudoeste 0 -- -- 66
2019-04-01 15:00:00 17.3 9 Sur 17 Sudoeste 0 -- -- 79
2019-04-01 14:00:00 14.4 10 Sudeste 31 Sudoeste 0.6 -- -- 90
2019-04-01 13:00:00 17.2 8 Sudoeste 18 Sudoeste 0 -- -- 68
2019-04-01 12:00:00 17.4 9 Sudoeste 19 Sudoeste 0 -- -- 72
2019-04-01 11:00:00 16.3 8 Sur 13 Sur 0 -- -- 79
2019-04-01 10:00:00 13.2 2 Noroeste 5 Nordeste 0 -- -- 95
2019-04-01 09:00:00 10.3 4 Norte 6 Norte 0 -- -- 98
2019-04-01 08:00:00 10.5 3 Norte 5 Norte 0 -- -- 97
2019-04-01 07:00:00 11.1 3 Nordeste 6 Norte 0 -- -- 97
2019-04-01 06:00:00 11.3 0 Calma 6 Norte 0 -- -- 96
2019-04-01 05:00:00 11.8 5 Norte 8 Norte 0.2 -- -- 96
2019-04-01 04:00:00 12.1 2 Norte 4 Norte 0.4 -- -- 95
2019-04-01 03:00:00 12.2 2 Sudoeste 6 Sudoeste 0.2 -- -- 95
2019-04-01 02:00:00 12.2 0 Calma 8 Sudeste 0 -- -- 94
2019-04-01 01:00:00 12.5 4 Sur 10 Sur 0 -- -- 94
2019-04-01 00:00:00 12.8 6 Sudoeste 13 Sur 0 -- -- 92
2019-03-31 23:00:00 13.1 9 Sudoeste 23 Sudoeste 0 -- -- 88
2019-03-31 22:00:00 13.8 8 Nordeste 20 Noroeste 0.6 -- -- 86
2019-03-31 21:00:00 15.4 10 Norte 17 Norte 0 -- -- 75
2019-03-31 20:00:00 17.5 9 Nordeste 17 Nordeste 0 -- -- 68
2019-03-31 19:00:00 19.2 10 Nordeste 19 Este 0 -- -- 62
2019-03-31 18:00:00 19 7 Nordeste 23 Nordeste 0 -- -- 65
2019-03-31 17:00:00 20 6 Nordeste 15 Norte 0 -- -- 59
2019-03-31 16:00:00 19 5 Nordeste 15 Norte 0 -- -- 66
2019-03-31 15:00:00 17.8 8 Norte 19 Nordeste 0 -- -- 77
2019-03-31 14:00:00 16.2 11 Nordeste 19 Nordeste 0 -- -- 81
2019-03-31 13:00:00 15.4 9 Norte 16 Norte 0 -- -- 89
2019-03-31 12:00:00 13.7 4 Este 13 Nordeste 0.2 -- -- 93
2019-03-31 11:00:00 12.8 6 Nordeste 10 Nordeste 0.2 -- -- 94
2019-03-31 10:00:00 12.3 4 Norte 10 Este 0.6 -- -- 95
2019-03-31 09:00:00 12 3 Nordeste 9 Nordeste 0 -- -- 94
2019-03-31 08:00:00 11.9 4 Norte 14 Nordeste 1 -- -- 93
2019-03-31 07:00:00 12.5 3 Este 10 Nordeste 1.4 -- -- 91
2019-03-31 06:00:00 13.2 3 Nordeste 10 Este 0.6 -- -- 86
2019-03-31 05:00:00 13.8 6 Este 12 Este 0 -- -- 78
2019-03-31 03:00:00 13.8 11 Sur 22 Sudoeste 0 -- -- 77
2019-03-31 01:00:00 13.7 7 Sudoeste 17 Sudoeste 0 -- -- 76
2019-03-31 00:00:00 13.9 10 Sudoeste 23 Sudoeste 0 -- -- 72
2019-03-30 23:00:00 13.6 13 Sudoeste 22 Sur 0 -- -- 72
2019-03-30 22:00:00 14 9 Sudoeste 21 Sur 0 -- -- 70
2019-03-30 21:00:00 14.2 8 Sudoeste 21 Sudoeste 0 -- -- 69
2019-03-30 20:00:00 14.8 19 Sur 33 Sur 0 -- -- 68
2019-03-30 19:00:00 16.8 24 Sur 37 Sur 0 -- -- 58
2019-03-30 18:00:00 19.7 23 Sur 34 Sur 0 -- -- 50
2019-03-30 17:00:00 22 21 Sudoeste 28 Sur 0 -- -- 45
2019-03-30 16:00:00 22.7 12 Sudoeste 25 Sur 0 -- -- 45
2019-03-30 15:00:00 22.9 9 Sur 21 Sur 0 -- -- 45
2019-03-30 14:00:00 21.8 7 Sudeste 23 Este 0 -- -- 43
2019-03-30 13:00:00 19.9 4 Sudoeste 13 Nordeste 0 -- -- 46
2019-03-30 12:00:00 18.2 5 Nordeste 13 Norte 0 -- -- 50
2019-03-30 11:00:00 16.1 9 Nordeste 19 Nordeste 0 -- -- 56
2019-03-30 10:00:00 15.4 9 Norte 16 Norte 0 -- -- 65
2019-03-30 09:00:00 12.6 5 Norte 11 Norte 0 -- -- 78
2019-03-30 08:00:00 7.2 4 Norte 8 Norte 0 -- -- 90
2019-03-30 07:00:00 6.6 0 Calma 10 Norte 0 -- -- 87
2019-03-30 06:00:00 6.8 5 Norte 10 Norte 0 -- -- 87
2019-03-30 05:00:00 8 5 Norte 12 Este 0 -- -- 82
2019-03-30 04:00:00 11.1 6 Este 19 Sudeste 0 -- -- 74
2019-03-30 03:00:00 12.5 13 Sur 27 Sur 0 -- -- 70
2019-03-30 02:00:00 10 0 Calma 21 Sudeste 0 -- -- 79
2019-03-30 01:00:00 12.8 13 Sur 24 Sur 0 -- -- 70
2019-03-30 00:00:00 11.1 6 Sudoeste 15 Sur 0 -- -- 75
2019-03-29 23:00:00 10.7 6 Sur 14 Sur 0 -- -- 75
2019-03-29 22:00:00 12 6 Sudoeste 15 Sur 0 -- -- 71
2019-03-29 21:00:00 14.4 8 Sur 17 Sur 0 -- -- 61
2019-03-29 20:00:00 15.5 13 Sur 26 Sur 0 -- -- 57
2019-03-29 19:00:00 17.5 15 Sur 31 Sudoeste 0 -- -- 48
2019-03-29 18:00:00 19.1 21 Sur 30 Sur 0 -- -- 45
2019-03-29 17:00:00 21.7 19 Sur 33 Sur 0 -- -- 40
2019-03-29 16:00:00 21.5 14 Sur 31 Sur 0 -- -- 41
2019-03-29 15:00:00 22.1 14 Sur 28 Sur 0 -- -- 38
2019-03-29 14:00:00 21 11 Sur 36 Sur 0 -- -- 35
2019-03-29 13:00:00 19.4 10 Sudeste 21 Este 0 -- -- 32
2019-03-29 12:00:00 16.9 9 Nordeste 18 Nordeste 0 -- -- 34
2019-03-29 11:00:00 14.8 10 Nordeste 17 Nordeste 0 -- -- 39
2019-03-29 10:00:00 11.6 8 Norte 16 Norte 0 -- -- 66
2019-03-29 09:00:00 7.6 5 Norte 11 Norte 0 -- -- 79
2019-03-29 08:00:00 4.4 0 Calma 11 Norte 0 -- -- 87
2019-03-29 07:00:00 3.5 5 Nordeste 10 Norte 0 -- -- 89
2019-03-29 06:00:00 3.1 3 Norte 10 Nordeste 0 -- -- 87
2019-03-29 05:00:00 3 5 Norte 10 Norte 0 -- -- 87
2019-03-29 04:00:00 3.1 3 Nordeste 8 Norte 0 -- -- 85
2019-03-29 03:00:00 4.3 4 Norte 10 Norte 0 -- -- 82
2019-03-29 02:00:00 6.4 3 Norte 15 Nordeste 0 -- -- 78
2019-03-29 01:00:00 7.1 4 Norte 9 Sudeste 0 -- -- 76
2019-03-29 00:00:00 10.6 5 Sudeste 14 Sur 0 -- -- 62
2019-03-28 23:00:00 8.6 5 Sur 12 Sur 0 -- -- 69
2019-03-28 22:00:00 9.3 2 Sur 13 Sudoeste 0 -- -- 67
2019-03-28 21:00:00 12.2 5 Sudoeste 24 Sudoeste 0 -- -- 56
2019-03-28 20:00:00 14.4 19 Sudoeste 30 Sur 0 -- -- 46
2019-03-28 19:00:00 18 18 Sur 31 Sur 0 -- -- 34
2019-03-28 18:00:00 20.9 17 Sudoeste 26 Sudoeste 0 -- -- 30
2019-03-28 17:00:00 22.2 9 Nordeste 22 Este 0 -- -- 26
2019-03-28 16:00:00 21.6 12 Nordeste 25 Este 0 -- -- 27
2019-03-28 15:00:00 21.2 7 Nordeste 24 Sudeste 0 -- -- 31
2019-03-28 14:00:00 19.8 13 Este 26 Este 0 -- -- 34
2019-03-28 13:00:00 18.6 9 Este 20 Nordeste 0 -- -- 37
2019-03-28 12:00:00 17.7 9 Nordeste 22 Este 0 -- -- 42
2019-03-28 11:00:00 16.7 13 Sur 22 Sudeste 0 -- -- 44
2019-03-28 10:00:00 12.6 4 Norte 12 Nordeste 0 -- -- 64
2019-03-28 09:00:00 9.5 5 Norte 12 Norte 0 -- -- 81
2019-03-28 08:00:00 4.8 4 Norte 8 Norte 0 -- -- 91
2019-03-28 07:00:00 4.9 5 Norte 13 Norte 0 -- -- 86
2019-03-28 06:00:00 7.1 9 Norte 15 Nordeste 0 -- -- 84
2019-03-28 05:00:00 7.6 9 Norte 14 Nordeste 0 -- -- 82
2019-03-28 04:00:00 6.3 4 Norte 11 Nordeste 0 -- -- 86
2019-03-28 03:00:00 5.3 5 Norte 8 Norte 0 -- -- 88
2019-03-28 02:00:00 6 3 Norte 5 Este 0 -- -- 85
2019-03-28 01:00:00 7.1 0 Calma 8 Sur 0 -- -- 80
2019-03-28 00:00:00 8.3 5 Sudeste 8 Sur 0 -- -- 77
2019-03-27 23:00:00 10 0 Calma 9 Sudoeste 0 -- -- 74
2019-03-27 22:00:00 12.7 9 Sur 25 Sur 0 -- -- 65
2019-03-27 21:00:00 13.9 15 Sur 26 Sur 0 -- -- 58
2019-03-27 20:00:00 15.6 14 Sur 26 Sur 0 -- -- 49
2019-03-27 19:00:00 18.7 19 Sur 28 Sudoeste 0 -- -- 40
2019-03-27 18:00:00 21.5 3 Noroeste 21 Sudeste 0 -- -- 27
2019-03-27 17:00:00 22.5 8 Sudoeste 22 Este 0 -- -- 24
2019-03-27 16:00:00 21.3 12 Norte 24 Sur 0 -- -- 26
2019-03-27 15:00:00 20.8 6 Norte 24 Nordeste 0 -- -- 25
2019-03-27 14:00:00 20.2 10 Nordeste 24 Nordeste 0 -- -- 27
2019-03-27 13:00:00 19.1 14 Nordeste 26 Este 0 -- -- 28
2019-03-27 12:00:00 18.1 15 Nordeste 33 Nordeste 0 -- -- 33
2019-03-27 11:00:00 16 17 Nordeste 31 Nordeste 0 -- -- 40
2019-03-27 10:00:00 13.1 12 Norte 22 Norte 0 -- -- 51
2019-03-27 09:00:00 9.6 7 Norte 17 Norte 0 -- -- 85
2019-03-27 08:00:00 6.5 3 Norte 13 Norte 0 -- -- 85
2019-03-27 07:00:00 5.6 5 Norte 11 Norte 0 -- -- 93
2019-03-27 06:00:00 5.2 0 Calma 6 Norte 0 -- -- 90
2019-03-27 05:00:00 6.1 4 Norte 9 Norte 0 -- -- 91
2019-03-27 04:00:00 6.8 0 Calma 8 Norte 0 -- -- 89
2019-03-27 03:00:00 7.8 2 Nordeste 5 Noroeste 0 -- -- 88
2019-03-27 02:00:00 8.9 0 Calma 4 Noroeste 0 -- -- 85
2019-03-27 01:00:00 10.4 3 Noroeste 9 Sur 0 -- -- 84
2019-03-27 00:00:00 12.6 5 Sudoeste 13 Sur 0 -- -- 77
2019-03-26 23:00:00 14.9 11 Sur 19 Sudeste 0 -- -- 69
2019-03-26 22:00:00 15.2 8 Sur 17 Sur 0 -- -- 65
2019-03-26 21:00:00 15.8 5 Sur 12 Sur 0 -- -- 60
2019-03-26 20:00:00 17.5 8 Sur 20 Sur 0 -- -- 54
2019-03-26 19:00:00 19.9 17 Sur 26 Sur 0 -- -- 47
2019-03-26 18:00:00 23 19 Sur 28 Sur 0 -- -- 39
2019-03-26 17:00:00 25.4 9 Sudoeste 16 Sudoeste 0 -- -- 32
2019-03-26 16:00:00 25.8 9 Sudoeste 20 Sudoeste 0 -- -- 30
2019-03-26 15:00:00 25.4 6 Sur 18 Sudoeste 0 -- -- 31
2019-03-26 14:00:00 24.3 7 Oeste 14 Sudoeste 0 -- -- 31
2019-03-26 13:00:00 22.6 6 Noroeste 17 Norte 0 -- -- 35
2019-03-26 12:00:00 20.4 10 Nordeste 17 Nordeste 0 -- -- 39
2019-03-26 11:00:00 18.4 3 Sudoeste 8 Sudoeste 0 -- -- 50
2019-03-26 10:00:00 15.8 4 Sudoeste 9 Norte 0 -- -- 60
2019-03-26 09:00:00 11.7 8 Norte 12 Norte 0 -- -- 76
2019-03-26 08:00:00 7.9 3 Norte 8 Norte 0 -- -- 86
2019-03-26 07:00:00 7.8 5 Norte 9 Norte 0 -- -- 85
2019-03-26 06:00:00 8.6 3 Norte 10 Norte 0 -- -- 85
2019-03-26 05:00:00 7.3 4 Norte 7 Norte 0 -- -- 87
2019-03-26 04:00:00 7.1 3 Nordeste 9 Norte 0 -- -- 86
2019-03-26 03:00:00 7.9 4 Norte 8 Norte 0 -- -- 83
2019-03-26 02:00:00 8.5 5 Norte 10 Norte 0 -- -- 80
2019-03-26 01:00:00 8.7 3 Nordeste 6 Norte 0 -- -- 81
2019-03-26 00:00:00 9.8 3 Nordeste 6 Sudoeste 0 -- -- 78
2019-03-25 23:00:00 12.2 3 Oeste 15 Sur 0 -- -- 70
2019-03-25 22:00:00 12.3 3 Sur 6 Sur 0 -- -- 69
2019-03-25 21:00:00 14.9 3 Sudoeste 9 Sudoeste 0 -- -- 62
2019-03-25 20:00:00 18.4 5 Sudoeste 28 Sur 0 -- -- 52
2019-03-25 19:00:00 22.6 7 Este 19 Nordeste 0 -- -- 39
2019-03-25 18:00:00 23.6 10 Nordeste 23 Nordeste 0 -- -- 36
2019-03-25 17:00:00 24.4 8 Nordeste 26 Nordeste 0 -- -- 33
2019-03-25 16:00:00 23.9 9 Nordeste 25 Este 0 -- -- 34
2019-03-25 15:00:00 23.9 13 Este 29 Este 0 -- -- 36
2019-03-25 14:00:00 22.8 10 Nordeste 27 Nordeste 0 -- -- 38
2019-03-25 13:00:00 21.5 15 Nordeste 29 Nordeste 0 -- -- 40
2019-03-25 12:00:00 19.4 18 Nordeste 29 Nordeste 0 -- -- 47
2019-03-25 11:00:00 16.6 17 Nordeste 32 Nordeste 0 -- -- 56
2019-03-25 10:00:00 14.4 16 Nordeste 25 Nordeste 0 -- -- 59
2019-03-25 09:00:00 10.9 6 Norte 13 Norte 0 -- -- 77
2019-03-25 08:00:00 8.5 4 Norte 16 Norte 0 -- -- 82
2019-03-25 07:00:00 7.3 12 Norte 16 Norte 0 -- -- 86
2019-03-25 06:00:00 7.8 10 Norte 16 Norte 0 -- -- 85
2019-03-25 05:00:00 7.2 3 Norte 10 Norte 0 -- -- 86
2019-03-25 04:00:00 7.4 5 Norte 10 Norte 0 -- -- 87
2019-03-25 03:00:00 7.5 0 Calma 10 Norte 0 -- -- 83
2019-03-25 02:00:00 8.5 5 Norte 10 Norte 0 -- -- 84
2019-03-25 01:00:00 7.8 5 Norte 9 Norte 0 -- -- 85
2019-03-25 00:00:00 9.1 3 Norte 8 Norte 0 -- -- 81